Terminal Aerodrome Forecast
Issued by NWS St Louis, MO

Home | Current Version | Previous Version | Text Only | Print | Product List | Glossary On
Versions: 1 2 3 4 5 6 7 8 9 10 11 12 13 14 15 16 17 18 19 20 21 22 23 24 25 26 27 28
906
FTUS43 KLSX 172338
TAFSTL
TAF
KSTL 172338Z 1800/1906 28011KT P6SM OVC015
     FM180200 28008KT P6SM OVC015
     FM181000 28005KT 5SM BR SCT015
     FM181600 22005KT P6SM SCT030
     FM181900 18007KT P6SM SCT120
     FM190000 14005KT P6SM BKN120=

USA.gov is the U.S. government's official web portal to all federal, state and local government web resources and services.